Time;durP1;ratioP1;P1;durP2;ratioP2;P2;SDS_P1;SDS_P2;PMS_P1;PMS_P2;Temp;Humidity;BMP_temperature;BMP_pressure;BME280_temperature;BME280_humidity;BME280_pressure;Samples;Min_cycle;Max_cycle;Signal;HPM_P1;HPM_P2
2023/08/26 00:00:37;;;;;;;4.63;3.00;;;23.20;99.90;;;;;;5003850;28;20045;-81
2023/08/26 00:03:04;;;;;;;7.68;3.90;;;23.20;99.90;;;;;;5006499;28;20048;-81
2023/08/26 00:05:31;;;;;;;8.80;3.70;;;23.20;99.90;;;;;;5007568;28;20567;-81
2023/08/26 00:07:58;;;;;;;10.38;4.43;;;23.20;99.90;;;;;;5000485;28;20100;-79
2023/08/26 00:10:25;;;;;;;10.30;4.78;;;23.10;99.90;;;;;;5003576;28;20050;-79
2023/08/26 00:12:52;;;;;;;8.27;4.50;;;23.10;99.90;;;;;;5009138;28;20096;-80
2023/08/26 00:15:19;;;;;;;9.18;5.22;;;23.10;99.90;;;;;;5003747;28;20046;-79
2023/08/26 00:17:45;;;;;;;11.15;4.72;;;23.00;99.90;;;;;;5001809;28;20476;-80
2023/08/26 00:20:12;;;;;;;8.38;4.28;;;23.00;99.90;;;;;;5007138;28;20056;-77
2023/08/26 00:22:39;;;;;;;11.38;5.22;;;23.00;99.90;;;;;;4996711;28;20057;-77
2023/08/26 00:25:06;;;;;;;8.45;4.35;;;23.00;99.90;;;;;;5000602;28;20406;-78
2023/08/26 00:27:33;;;;;;;9.95;5.30;;;23.00;99.90;;;;;;5008707;28;20046;-76
2023/08/26 00:30:00;;;;;;;10.10;4.75;;;23.00;99.90;;;;;;5000622;28;20501;-78
2023/08/26 00:32:27;;;;;;;6.15;4.40;;;23.00;99.90;;;;;;5002981;28;20050;-77
2023/08/26 00:34:54;;;;;;;5.72;4.55;;;23.00;99.90;;;;;;5008352;28;20469;-80
2023/08/26 00:37:21;;;;;;;5.50;4.60;;;23.00;99.90;;;;;;5002537;28;20105;-78
2023/08/26 00:39:48;;;;;;;11.02;4.95;;;23.00;99.90;;;;;;5000133;28;20132;-78
2023/08/26 00:42:14;;;;;;;6.88;4.75;;;22.90;99.90;;;;;;5005195;28;20073;-79
2023/08/26 00:44:41;;;;;;;9.18;4.72;;;22.90;99.90;;;;;;5007021;28;20050;-78
2023/08/26 00:47:08;;;;;;;7.65;4.63;;;22.90;99.90;;;;;;5001031;28;20136;-77
2023/08/26 00:49:35;;;;;;;9.52;5.07;;;22.90;99.90;;;;;;5003811;28;20046;-80
2023/08/26 00:52:02;;;;;;;8.40;4.95;;;22.90;99.90;;;;;;5003690;28;20054;-79
2023/08/26 00:54:32;;;;;;;7.70;4.60;;;22.80;99.90;;;;;;4997926;28;20053;-79
2023/08/26 00:56:59;;;;;;;8.32;4.40;;;22.80;99.90;;;;;;5005283;28;20073;-78
2023/08/26 00:59:26;;;;;;;9.35;4.65;;;22.80;99.90;;;;;;5006606;28;20113;-77
2023/08/26 01:01:54;;;;;;;8.57;5.03;;;22.80;99.90;;;;;;5001178;28;20054;-77
2023/08/26 01:04:21;;;;;;;8.32;4.30;;;22.80;99.90;;;;;;5005270;28;20050;-77
2023/08/26 01:06:47;;;;;;;9.23;4.90;;;22.70;99.90;;;;;;5007972;28;20121;-78
2023/08/26 01:09:14;;;;;;;9.57;4.72;;;22.70;99.90;;;;;;5002558;28;20050;-79
2023/08/26 01:12:03;;;;;;;10.63;4.75;;;22.70;99.90;;;;;;5012151;28;20054;-77
2023/08/26 01:14:39;;;;;;;6.47;4.00;;;22.70;99.90;;;;;;5008960;28;20104;-78
2023/08/26 01:17:07;;;;;;;8.65;4.35;;;22.70;99.90;;;;;;5001994;28;20046;-78
2023/08/26 01:19:40;;;;;;;9.02;4.47;;;22.70;99.90;;;;;;5008607;28;20050;-79
2023/08/26 01:22:08;;;;;;;7.13;4.18;;;22.70;99.90;;;;;;5002181;28;20046;-77
2023/08/26 01:24:39;;;;;;;12.48;4.80;;;22.70;99.90;;;;;;5005178;28;20104;-77
2023/08/26 01:27:07;;;;;;;8.30;5.00;;;22.70;99.90;;;;;;5010013;28;20089;-77
2023/08/26 01:29:35;;;;;;;10.63;5.07;;;22.70;99.90;;;;;;5005875;28;20460;-77
2023/08/26 01:32:08;;;;;;;7.93;4.32;;;22.70;99.90;;;;;;5003400;28;20053;-77
2023/08/26 01:34:37;;;;;;;10.07;4.53;;;22.70;99.90;;;;;;5007805;28;20108;-78
2023/08/26 01:37:07;;;;;;;6.55;4.00;;;22.70;99.90;;;;;;5007768;28;20057;-77
2023/08/26 01:39:34;;;;;;;10.23;5.60;;;22.70;99.90;;;;;;5005159;28;20212;-77
2023/08/26 01:42:02;;;;;;;9.88;5.00;;;22.70;99.90;;;;;;5009242;28;20046;-78
2023/08/26 01:44:30;;;;;;;7.25;4.50;;;22.60;99.90;;;;;;5006084;28;20058;-80
2023/08/26 01:46:57;;;;;;;11.20;5.28;;;22.60;99.90;;;;;;5001552;28;20093;-78
2023/08/26 01:49:24;;;;;;;8.45;4.90;;;22.60;99.90;;;;;;5006727;28;20100;-77
2023/08/26 01:51:51;;;;;;;12.57;4.82;;;22.60;99.90;;;;;;5003247;28;20809;-78
2023/08/26 01:54:17;;;;;;;6.95;4.32;;;22.60;99.90;;;;;;5005898;28;20054;-79
2023/08/26 01:56:44;;;;;;;8.73;4.68;;;22.60;99.90;;;;;;5008420;28;20044;-78
2023/08/26 01:59:11;;;;;;;7.72;5.22;;;22.50;99.90;;;;;;5011279;28;20041;-77
2023/08/26 02:01:38;;;;;;;8.50;4.65;;;22.50;99.90;;;;;;5002538;28;20042;-79
2023/08/26 02:04:05;;;;;;;10.15;4.90;;;22.40;99.90;;;;;;5006140;28;20073;-78
2023/08/26 02:06:32;;;;;;;9.88;4.80;;;22.40;99.90;;;;;;5012089;28;20096;-78
2023/08/26 02:08:59;;;;;;;8.00;4.47;;;22.40;99.90;;;;;;5004683;28;20077;-77
2023/08/26 02:11:25;;;;;;;9.23;4.65;;;22.40;99.90;;;;;;5007358;28;20454;-78
2023/08/26 02:13:52;;;;;;;9.90;4.60;;;22.30;99.90;;;;;;5011616;28;20042;-78
2023/08/26 02:16:19;;;;;;;10.57;4.50;;;22.20;99.90;;;;;;5000009;28;20433;-79
2023/08/26 02:18:46;;;;;;;8.63;5.28;;;22.30;99.90;;;;;;5005167;28;20582;-79
2023/08/26 02:21:13;;;;;;;14.50;5.13;;;22.30;99.90;;;;;;5011296;28;20042;-78
2023/08/26 02:23:39;;;;;;;9.98;4.85;;;22.30;99.90;;;;;;5006075;28;20042;-79
2023/08/26 02:26:06;;;;;;;8.50;4.72;;;22.30;99.90;;;;;;5001931;28;20046;-79
2023/08/26 02:28:34;;;;;;;10.80;4.53;;;22.30;99.90;;;;;;5009653;28;20096;-79
2023/08/26 02:31:02;;;;;;;9.10;4.47;;;22.30;99.90;;;;;;5001313;28;20057;-79
2023/08/26 02:33:30;;;;;;;13.38;5.15;;;22.30;99.90;;;;;;5002382;28;20053;-78
2023/08/26 02:35:56;;;;;;;8.52;4.50;;;22.20;99.90;;;;;;5005415;28;20046;-79
2023/08/26 02:38:24;;;;;;;13.10;4.88;;;22.20;99.90;;;;;;5005055;28;20046;-79
2023/08/26 02:40:53;;;;;;;8.77;4.60;;;22.30;99.90;;;;;;4986992;28;20077;-79
2023/08/26 02:43:21;;;;;;;8.07;4.35;;;22.30;99.90;;;;;;5008683;28;20104;-79
2023/08/26 02:45:55;;;;;;;10.80;4.25;;;22.30;99.90;;;;;;5000632;28;20074;-79
2023/08/26 02:48:22;;;;;;;10.23;5.03;;;22.20;99.90;;;;;;4999777;28;20445;-79
2023/08/26 02:51:00;;;;;;;7.47;4.78;;;22.20;99.90;;;;;;5010787;28;20042;-81
2023/08/26 02:53:29;;;;;;;11.05;4.53;;;22.30;99.90;;;;;;5004897;28;20042;-79
2023/08/26 02:55:56;;;;;;;6.03;4.40;;;22.20;99.90;;;;;;5001206;28;20065;-80
2023/08/26 02:58:23;;;;;;;7.57;4.35;;;22.20;99.90;;;;;;5008155;28;20042;-79
2023/08/26 03:00:50;;;;;;;9.93;5.03;;;22.30;99.90;;;;;;5003261;28;20100;-78
2023/08/26 03:03:17;;;;;;;13.43;4.93;;;22.30;99.90;;;;;;5001554;28;20097;-79
2023/08/26 03:05:45;;;;;;;8.65;4.28;;;22.20;99.90;;;;;;5008051;28;20057;-78
2023/08/26 03:08:11;;;;;;;9.43;4.55;;;22.20;99.90;;;;;;5004469;28;20043;-79
2023/08/26 03:10:38;;;;;;;5.35;4.20;;;22.20;99.90;;;;;;5002688;28;20054;-79
2023/08/26 03:13:10;;;;;;;9.38;5.28;;;22.20;99.90;;;;;;5006587;28;20556;-79
2023/08/26 03:15:36;;;;;;;8.43;4.40;;;22.20;99.90;;;;;;4988457;28;20057;-79
2023/08/26 03:18:03;;;;;;;7.22;4.15;;;22.20;99.90;;;;;;4998598;28;20097;-77
2023/08/26 03:20:31;;;;;;;6.45;3.97;;;22.20;99.90;;;;;;5006959;28;20053;-80
2023/08/26 03:22:58;;;;;;;7.50;3.67;;;22.20;99.90;;;;;;5007993;28;20492;-79
2023/08/26 03:25:25;;;;;;;10.32;3.85;;;22.20;99.90;;;;;;5001057;28;20076;-79
2023/08/26 03:27:51;;;;;;;13.23;3.97;;;22.10;99.90;;;;;;5005112;28;20489;-79
2023/08/26 03:30:18;;;;;;;8.38;3.75;;;22.10;99.90;;;;;;5004965;28;20078;-79
2023/08/26 03:32:45;;;;;;;6.70;4.10;;;22.00;99.90;;;;;;5001175;28;20468;-79
2023/08/26 03:35:12;;;;;;;8.35;3.83;;;22.00;99.90;;;;;;5007993;28;20558;-78
2023/08/26 03:37:39;;;;;;;7.75;3.65;;;22.00;99.90;;;;;;5010524;28;20092;-79
2023/08/26 03:40:08;;;;;;;8.48;4.25;;;22.00;99.90;;;;;;4998736;28;20054;-77
2023/08/26 03:42:35;;;;;;;9.18;3.50;;;22.00;99.90;;;;;;5004371;28;20046;-79
2023/08/26 03:45:04;;;;;;;11.15;4.35;;;22.00;99.90;;;;;;5000412;28;20080;-79
2023/08/26 03:47:32;;;;;;;8.30;4.07;;;21.90;99.90;;;;;;5000863;28;20099;-81
2023/08/26 03:50:00;;;;;;;9.95;4.78;;;22.00;99.90;;;;;;5005983;28;20045;-80
2023/08/26 03:52:26;;;;;;;8.68;5.45;;;22.00;99.90;;;;;;5008062;28;20088;-79
2023/08/26 03:54:53;;;;;;;8.00;3.90;;;22.00;99.90;;;;;;4998836;28;20409;-80
2023/08/26 03:57:20;;;;;;;10.02;3.67;;;22.00;99.90;;;;;;5003538;28;20053;-78
2023/08/26 03:59:47;;;;;;;6.70;3.78;;;22.00;99.90;;;;;;5011085;28;20050;-79
2023/08/26 04:02:14;;;;;;;11.07;3.58;;;22.00;99.90;;;;;;5004484;28;20050;-80
2023/08/26 04:04:41;;;;;;;7.13;3.45;;;22.00;99.90;;;;;;5007827;28;20425;-79
2023/08/26 04:07:07;;;;;;;10.15;5.25;;;22.00;99.90;;;;;;5010730;28;20092;-79
2023/08/26 04:09:35;;;;;;;13.10;3.75;;;22.00;99.90;;;;;;5000902;28;20514;-79
2023/08/26 04:12:02;;;;;;;7.97;3.88;;;22.00;99.90;;;;;;5002040;28;20050;-79
2023/08/26 04:14:29;;;;;;;8.40;3.90;;;22.00;99.90;;;;;;5010639;28;20100;-79
2023/08/26 04:16:56;;;;;;;6.30;3.80;;;22.00;99.90;;;;;;4988447;28;20491;-80
2023/08/26 04:19:23;;;;;;;7.97;3.33;;;22.00;99.90;;;;;;5005960;28;20100;-80
2023/08/26 04:21:50;;;;;;;10.65;3.85;;;22.00;99.90;;;;;;5010502;28;20099;-80
2023/08/26 04:24:17;;;;;;;6.28;4.05;;;22.00;99.90;;;;;;5003451;28;20092;-80
2023/08/26 04:26:43;;;;;;;5.80;4.30;;;22.00;99.90;;;;;;5002614;28;20046;-80
2023/08/26 04:29:10;;;;;;;9.70;4.40;;;22.00;99.90;;;;;;5010455;28;20129;-78
2023/08/26 04:31:37;;;;;;;5.45;3.92;;;22.00;99.90;;;;;;5011680;28;20050;-79
2023/08/26 04:34:04;;;;;;;8.85;3.80;;;22.00;99.90;;;;;;5007103;28;20190;-80
2023/08/26 04:36:30;;;;;;;5.45;3.75;;;22.00;99.90;;;;;;5008150;28;20042;-77
2023/08/26 04:38:57;;;;;;;8.32;3.95;;;22.00;99.90;;;;;;5007543;28;20109;-79
2023/08/26 04:41:24;;;;;;;9.35;4.10;;;22.00;99.90;;;;;;5005080;28;20038;-77
2023/08/26 04:43:53;;;;;;;7.78;4.22;;;22.00;99.90;;;;;;5011714;28;20104;-78
2023/08/26 04:46:20;;;;;;;8.30;4.07;;;22.00;99.90;;;;;;5009714;28;20116;-80
2023/08/26 04:48:50;;;;;;;9.07;3.67;;;22.00;99.90;;;;;;5010091;28;20050;-79
2023/08/26 04:51:17;;;;;;;9.25;4.50;;;22.00;99.90;;;;;;5012465;28;20046;-78
2023/08/26 04:53:43;;;;;;;7.40;3.80;;;22.00;99.90;;;;;;5009247;28;20557;-79
2023/08/26 04:56:10;;;;;;;9.07;3.90;;;22.00;99.90;;;;;;5003270;28;20061;-78
2023/08/26 04:58:37;;;;;;;8.32;3.88;;;22.00;99.90;;;;;;5012047;28;20502;-78
2023/08/26 05:01:04;;;;;;;7.53;4.70;;;22.00;99.90;;;;;;5013001;28;20485;-79
2023/08/26 05:03:31;;;;;;;10.15;4.15;;;22.00;99.90;;;;;;5006650;28;20469;-78
2023/08/26 05:05:58;;;;;;;9.32;3.85;;;22.00;99.90;;;;;;4992294;28;20046;-79
2023/08/26 05:08:25;;;;;;;7.50;4.25;;;22.00;99.90;;;;;;5009357;28;20049;-79
2023/08/26 05:10:52;;;;;;;9.23;3.90;;;22.00;99.90;;;;;;5003493;28;20472;-79
2023/08/26 05:13:18;;;;;;;8.68;3.97;;;22.00;99.90;;;;;;5008511;28;20050;-80
2023/08/26 05:15:46;;;;;;;11.45;5.22;;;22.00;99.90;;;;;;5014442;28;20050;-79
2023/08/26 05:18:14;;;;;;;10.35;3.90;;;22.00;99.90;;;;;;5004973;28;20203;-79
2023/08/26 05:20:45;;;;;;;11.52;5.00;;;22.00;99.90;;;;;;5007229;28;20050;-79
2023/08/26 05:23:12;;;;;;;;;;;21.90;99.90;;;;;;5014914;28;20124;-79
2023/08/26 05:25:39;;;;;;;10.30;3.58;;;21.90;99.90;;;;;;5002208;28;19922;-80
2023/08/26 05:28:06;;;;;;;8.95;3.83;;;21.90;99.90;;;;;;5010410;28;20069;-78
2023/08/26 05:30:33;;;;;;;10.75;4.03;;;21.90;99.90;;;;;;5013291;28;20765;-79
2023/08/26 05:33:00;;;;;;;13.52;4.38;;;21.90;99.90;;;;;;5005276;28;20176;-77
2023/08/26 05:35:27;;;;;;;7.93;3.97;;;21.90;99.90;;;;;;5007637;28;20049;-78
2023/08/26 05:37:54;;;;;;;6.30;3.10;;;21.90;99.90;;;;;;5013626;28;20071;-79
2023/08/26 05:40:26;;;;;;;12.18;3.95;;;21.90;99.90;;;;;;5001239;28;20121;-79
2023/08/26 05:42:57;;;;;;;9.00;3.83;;;22.00;99.90;;;;;;5011396;28;20042;-80
2023/08/26 05:45:25;;;;;;;5.28;3.47;;;22.00;99.90;;;;;;5012570;28;20038;-78
2023/08/26 05:47:52;;;;;;;8.80;3.83;;;22.00;99.90;;;;;;5005303;28;20060;-79
2023/08/26 05:50:19;;;;;;;9.77;4.13;;;22.00;99.90;;;;;;5005526;28;20042;-79
2023/08/26 05:52:46;;;;;;;7.70;4.10;;;22.00;99.90;;;;;;5010428;28;20046;-79
2023/08/26 05:55:14;;;;;;;6.50;3.22;;;22.00;99.90;;;;;;5001011;28;20120;-78
2023/08/26 05:57:41;;;;;;;10.48;3.83;;;22.10;99.90;;;;;;5009689;28;20452;-79
2023/08/26 06:00:09;;;;;;;7.68;3.83;;;22.20;99.90;;;;;;5012698;28;20077;-78
2023/08/26 06:02:35;;;;;;;10.32;4.38;;;22.20;99.90;;;;;;5006056;28;20053;-79
2023/08/26 06:05:02;;;;;;;9.93;3.70;;;22.20;99.90;;;;;;5003887;28;20046;-80
2023/08/26 06:07:29;;;;;;;6.88;3.35;;;22.20;99.90;;;;;;5012106;28;20050;-79
2023/08/26 06:09:56;;;;;;;7.38;3.22;;;22.20;99.90;;;;;;5005473;28;20516;-79
2023/08/26 06:12:23;;;;;;;5.95;3.75;;;22.20;99.90;;;;;;5007157;28;20087;-79
2023/08/26 06:14:49;;;;;;;8.63;4.25;;;22.20;99.90;;;;;;5011653;28;20076;-79
2023/08/26 06:17:16;;;;;;;8.30;3.50;;;22.10;99.90;;;;;;5006819;28;20109;-80
2023/08/26 06:19:43;;;;;;;11.18;4.20;;;22.20;99.90;;;;;;5005090;28;20498;-80
2023/08/26 06:22:10;;;;;;;10.35;3.65;;;22.20;99.90;;;;;;5009839;28;20104;-78
2023/08/26 06:24:36;;;;;;;13.05;3.50;;;22.20;99.90;;;;;;5009101;28;20050;-80
2023/08/26 06:27:03;;;;;;;8.45;3.80;;;22.20;99.90;;;;;;5008589;28;20054;-79
2023/08/26 06:29:30;;;;;;;9.27;3.38;;;22.20;99.90;;;;;;5010291;28;20041;-79
2023/08/26 06:31:57;;;;;;;8.80;3.63;;;22.10;99.90;;;;;;5007920;28;20057;-80
2023/08/26 06:34:24;;;;;;;6.55;3.40;;;22.10;99.90;;;;;;5002209;28;20129;-79
2023/08/26 06:36:50;;;;;;;10.10;4.85;;;22.10;99.90;;;;;;5008969;28;20057;-79
2023/08/26 06:39:17;;;;;;;11.02;3.70;;;22.10;99.90;;;;;;5012123;28;20092;-80
2023/08/26 06:41:44;;;;;;;8.52;3.60;;;22.10;99.90;;;;;;5006658;28;20524;-78
2023/08/26 06:44:11;;;;;;;8.68;3.53;;;22.10;99.90;;;;;;4991242;28;20045;-78
2023/08/26 06:46:40;;;;;;;7.72;3.80;;;22.10;99.90;;;;;;5010319;28;20046;-81
2023/08/26 06:49:07;;;;;;;6.13;3.00;;;22.10;99.90;;;;;;5001153;28;20097;-79
2023/08/26 06:51:34;;;;;;;8.88;2.92;;;22.20;99.90;;;;;;5007725;28;20167;-79
2023/08/26 06:54:00;;;;;;;7.13;3.03;;;22.20;99.90;;;;;;5013368;28;20563;-80
2023/08/26 06:56:27;;;;;;;11.27;3.05;;;22.20;99.90;;;;;;5001596;28;20043;-79
2023/08/26 06:58:54;;;;;;;7.07;3.17;;;22.30;99.90;;;;;;5007506;28;20049;-80
2023/08/26 07:01:21;;;;;;;7.28;2.50;;;22.30;99.90;;;;;;5012009;28;20044;-80
2023/08/26 07:03:47;;;;;;;8.15;2.80;;;22.40;99.90;;;;;;4998127;28;20054;-79
2023/08/26 07:06:15;;;;;;;6.43;2.50;;;22.40;99.90;;;;;;5005225;28;20120;-79
2023/08/26 07:08:42;;;;;;;5.25;2.30;;;22.50;99.90;;;;;;5008186;28;20089;-79
2023/08/26 07:11:09;;;;;;;6.50;3.15;;;22.60;99.90;;;;;;5005146;28;20049;-79
2023/08/26 07:13:35;;;;;;;11.07;2.72;;;22.60;99.90;;;;;;5006037;28;20064;-78
2023/08/26 07:16:03;;;;;;;6.65;2.92;;;22.70;99.90;;;;;;5012028;28;20049;-79
2023/08/26 07:18:30;;;;;;;6.78;2.42;;;22.80;99.90;;;;;;5000805;28;20064;-79
2023/08/26 07:20:56;;;;;;;6.53;2.85;;;22.90;99.90;;;;;;5006522;28;20045;-79
2023/08/26 07:23:23;;;;;;;7.63;2.67;;;22.90;99.90;;;;;;5012346;28;20042;-79
2023/08/26 07:25:50;;;;;;;5.22;2.92;;;23.00;99.90;;;;;;5005603;28;20050;-79
2023/08/26 07:28:17;;;;;;;13.05;2.88;;;23.00;99.90;;;;;;5004986;28;20050;-80
2023/08/26 07:30:43;;;;;;;5.78;3.00;;;23.00;99.90;;;;;;5010324;28;20100;-79
2023/08/26 07:33:10;;;;;;;6.10;2.58;;;23.00;99.90;;;;;;5001901;28;20105;-80
2023/08/26 07:35:37;;;;;;;4.47;2.60;;;23.00;99.90;;;;;;5005637;28;20050;-78
2023/08/26 07:38:04;;;;;;;8.52;2.40;;;23.00;99.90;;;;;;5010985;28;20046;-79
2023/08/26 07:40:30;;;;;;;5.68;2.38;;;23.00;99.90;;;;;;5001938;28;20474;-78
2023/08/26 07:42:59;;;;;;;8.90;2.88;;;23.00;99.90;;;;;;5004522;28;20051;-80
2023/08/26 07:45:25;;;;;;;9.43;2.60;;;23.00;99.90;;;;;;5008855;28;20073;-80
2023/08/26 07:47:52;;;;;;;8.80;3.80;;;22.90;99.90;;;;;;5006453;28;20070;-80
2023/08/26 07:50:22;;;;;;;11.32;2.63;;;22.90;99.90;;;;;;5003824;28;20085;-79
2023/08/26 07:52:48;;;;;;;9.43;2.83;;;22.90;99.90;;;;;;5010811;28;20050;-80
2023/08/26 07:55:15;;;;;;;4.70;2.80;;;22.90;99.90;;;;;;5008019;28;20050;-78
2023/08/26 07:57:42;;;;;;;11.20;3.40;;;22.90;99.90;;;;;;5007421;28;20747;-79
2023/08/26 08:00:09;;;;;;;8.32;3.35;;;22.80;99.90;;;;;;5007719;28;20046;-79
2023/08/26 08:02:36;;;;;;;6.65;3.33;;;22.80;99.90;;;;;;5006362;28;20046;-80
2023/08/26 08:05:03;;;;;;;6.55;2.40;;;22.80;99.90;;;;;;5004374;28;20464;-79
2023/08/26 08:07:30;;;;;;;8.85;2.90;;;22.80;99.90;;;;;;4990347;28;20105;-79
2023/08/26 08:09:57;;;;;;;6.32;2.80;;;22.70;99.90;;;;;;4989679;28;20081;-79
2023/08/26 08:12:23;;;;;;;8.60;3.47;;;22.70;99.90;;;;;;4997920;28;20081;-79
2023/08/26 08:14:50;;;;;;;6.85;2.83;;;22.70;99.90;;;;;;5004219;28;20115;-79
2023/08/26 08:17:17;;;;;;;8.75;2.53;;;22.70;99.90;;;;;;5008381;28;20050;-79
2023/08/26 08:19:45;;;;;;;7.55;2.58;;;22.70;99.90;;;;;;5004976;28;20054;-79
2023/08/26 08:22:16;;;;;;;8.80;2.60;;;22.70;99.90;;;;;;5006958;28;20046;-80
2023/08/26 08:24:46;;;;;;;9.38;2.35;;;22.70;99.90;;;;;;5009977;28;20046;-79
2023/08/26 08:27:13;;;;;;;6.22;2.28;;;22.70;99.90;;;;;;5001790;28;20134;-79
2023/08/26 08:29:39;;;;;;;5.38;2.60;;;22.80;99.90;;;;;;5007069;28;20049;-80
2023/08/26 08:32:06;;;;;;;13.63;3.38;;;22.90;99.90;;;;;;5013095;28;20046;-79
2023/08/26 08:34:33;;;;;;;7.50;3.80;;;22.90;99.90;;;;;;5005763;28;20050;-80
2023/08/26 08:36:59;;;;;;;7.45;3.10;;;23.00;99.90;;;;;;5007394;28;20051;-78
2023/08/26 08:39:26;;;;;;;5.47;2.83;;;23.10;99.90;;;;;;5011409;28;20037;-80
2023/08/26 08:41:54;;;;;;;7.68;3.08;;;23.10;99.90;;;;;;4998756;28;20050;-78
2023/08/26 08:44:25;;;;;;;9.77;3.42;;;23.20;99.90;;;;;;5002273;28;20038;-79
2023/08/26 08:46:52;;;;;;;10.98;3.85;;;23.20;99.90;;;;;;5006880;28;20050;-80
2023/08/26 08:49:19;;;;;;;4.85;2.47;;;23.20;99.90;;;;;;5004137;28;20416;-79
2023/08/26 08:51:48;;;;;;;6.43;2.70;;;23.20;99.90;;;;;;5006152;28;20058;-80
2023/08/26 08:54:16;;;;;;;6.82;2.70;;;23.20;99.90;;;;;;5010793;28;20057;-79
2023/08/26 08:56:43;;;;;;;6.78;2.30;;;23.20;99.90;;;;;;4999527;28;20058;-79
2023/08/26 08:59:12;;;;;;;5.38;2.28;;;23.20;99.90;;;;;;5004055;28;20410;-80
2023/08/26 09:01:39;;;;;;;6.82;2.42;;;23.20;99.90;;;;;;5010289;28;20494;-79
2023/08/26 09:04:07;;;;;;;5.28;2.10;;;23.20;99.90;;;;;;5005356;28;20057;-79
2023/08/26 09:06:34;;;;;;;4.63;2.42;;;23.20;99.90;;;;;;5002087;28;20053;-79
2023/08/26 09:09:02;;;;;;;5.97;2.30;;;23.20;99.90;;;;;;5008755;28;20061;-80
2023/08/26 09:11:29;;;;;;;7.45;2.60;;;23.20;99.90;;;;;;5000510;28;20050;-79
2023/08/26 09:13:57;;;;;;;7.97;2.25;;;23.20;99.90;;;;;;5002359;28;20053;-78
2023/08/26 09:16:38;;;;;;;10.52;2.92;;;23.20;99.90;;;;;;5010539;28;20092;-79
2023/08/26 09:19:09;;;;;;;5.72;2.45;;;23.30;99.90;;;;;;5004730;28;20042;-79
2023/08/26 09:21:46;;;;;;;5.25;1.80;;;23.30;99.90;;;;;;5001677;28;20457;-78
2023/08/26 09:24:15;;;;;;;5.95;2.10;;;23.40;99.90;;;;;;5005995;28;20042;-80
2023/08/26 09:26:43;;;;;;;7.70;2.13;;;23.50;99.90;;;;;;5005024;28;20049;-80
2023/08/26 09:29:20;;;;;;;6.10;1.95;;;23.50;99.90;;;;;;5005622;28;20047;-79
2023/08/26 09:31:49;;;;;;;6.35;2.20;;;23.50;99.90;;;;;;5013969;28;20058;-80
2023/08/26 09:34:28;;;;;;;7.68;2.00;;;23.40;99.90;;;;;;4980769;28;20050;-80
2023/08/26 09:36:56;;;;;;;11.95;3.10;;;23.30;99.90;;;;;;5006310;28;20057;-79
2023/08/26 09:39:23;;;;;;;3.90;1.70;;;23.30;99.90;;;;;;5012872;28;20128;-79
2023/08/26 09:41:50;;;;;;;5.60;1.83;;;23.20;99.90;;;;;;5003108;28;20046;-80
2023/08/26 09:44:17;;;;;;;5.70;2.17;;;23.10;99.90;;;;;;5004594;28;20045;-80
2023/08/26 09:46:44;;;;;;;5.03;1.90;;;23.10;99.90;;;;;;5010532;28;20042;-79
2023/08/26 09:49:13;;;;;;;3.85;1.90;;;23.10;99.90;;;;;;5010032;28;20050;-79
2023/08/26 09:51:48;;;;;;;4.30;1.70;;;23.10;99.90;;;;;;5005841;28;20049;-78
2023/08/26 09:54:16;;;;;;;8.82;2.25;;;23.10;99.90;;;;;;5011503;28;20464;-79
2023/08/26 09:56:44;;;;;;;6.75;1.98;;;23.10;99.90;;;;;;5002944;28;20105;-78
2023/08/26 09:59:12;;;;;;;7.95;2.15;;;23.10;99.90;;;;;;5006661;28;20081;-79
2023/08/26 10:01:40;;;;;;;6.68;3.08;;;23.00;99.90;;;;;;5012479;28;20073;-79
2023/08/26 10:04:11;;;;;;;7.07;2.17;;;23.00;99.90;;;;;;5007163;28;20089;-80
2023/08/26 10:06:43;;;;;;;3.92;1.73;;;22.90;99.90;;;;;;5007153;28;20049;-79
2023/08/26 10:09:19;;;;;;;5.60;2.30;;;22.90;99.90;;;;;;4998146;28;20192;-79
2023/08/26 10:11:50;;;;;;;3.85;2.10;;;22.80;99.90;;;;;;5005870;28;20082;-79
2023/08/26 10:14:18;;;;;;;10.73;2.40;;;22.80;99.90;;;;;;5006422;28;20100;-79
2023/08/26 10:16:45;;;;;;;7.65;2.35;;;22.70;99.90;;;;;;5011060;28;20539;-80
2023/08/26 10:19:14;;;;;;;4.93;2.17;;;22.70;99.90;;;;;;5008282;28;20049;-80
2023/08/26 10:21:41;;;;;;;6.10;2.92;;;22.60;99.90;;;;;;5004601;28;20049;-80
2023/08/26 10:24:09;;;;;;;6.68;2.13;;;22.60;99.90;;;;;;5010861;28;20514;-79
2023/08/26 10:26:36;;;;;;;6.53;2.60;;;22.60;99.90;;;;;;5006411;28;20069;-80
2023/08/26 10:29:03;;;;;;;7.38;2.22;;;22.60;99.90;;;;;;5007139;28;20069;-79
2023/08/26 10:31:36;;;;;;;6.13;2.42;;;22.60;99.90;;;;;;5008223;28;20421;-78
2023/08/26 10:34:05;;;;;;;3.28;2.15;;;22.50;99.90;;;;;;4988271;28;20050;-78
2023/08/26 10:36:37;;;;;;;4.10;2.53;;;22.60;99.90;;;;;;4998456;28;20258;-78
2023/08/26 10:39:11;;;;;;;8.95;3.33;;;22.50;99.90;;;;;;5007696;28;20084;-78
2023/08/26 10:41:38;;;;;;;4.95;2.40;;;22.50;99.90;;;;;;5007213;28;20069;-79
2023/08/26 10:44:04;;;;;;;6.13;2.55;;;22.60;99.90;;;;;;5006047;28;20394;-77
2023/08/26 10:46:36;;;;;;;6.53;2.55;;;22.50;99.90;;;;;;5007958;28;20046;-76
2023/08/26 10:49:03;;;;;;;5.55;2.25;;;22.60;99.90;;;;;;5008190;28;20505;-78
2023/08/26 10:51:34;;;;;;;9.50;2.28;;;22.50;99.90;;;;;;5001577;28;20473;-77
2023/08/26 10:54:02;;;;;;;6.40;2.42;;;22.50;99.90;;;;;;5004832;28;20046;-78
2023/08/26 10:56:33;;;;;;;6.80;2.63;;;22.40;99.90;;;;;;5007720;28;20056;-77
2023/08/26 10:59:05;;;;;;;3.08;2.00;;;22.30;99.90;;;;;;5004727;28;20048;-78
2023/08/26 11:01:37;;;;;;;5.45;2.65;;;22.30;99.90;;;;;;4988054;28;20281;-79
2023/08/26 11:04:05;;;;;;;4.13;2.45;;;22.30;99.90;;;;;;5006404;28;20052;-78
2023/08/26 11:06:39;;;;;;;3.65;2.08;;;22.20;99.90;;;;;;4983805;28;20050;-78
2023/08/26 11:09:07;;;;;;;4.43;2.42;;;22.20;99.90;;;;;;5008970;28;20084;-79
2023/08/26 11:11:34;;;;;;;7.80;2.30;;;22.10;99.90;;;;;;4994087;28;20045;-78
2023/08/26 11:14:00;;;;;;;4.40;1.90;;;22.10;99.90;;;;;;5004466;28;20737;-78
2023/08/26 11:16:28;;;;;;;3.58;2.08;;;22.10;99.90;;;;;;5005635;28;20045;-78
2023/08/26 11:18:57;;;;;;;5.13;2.50;;;22.00;99.90;;;;;;5006312;28;20064;-78
2023/08/26 11:21:24;;;;;;;5.72;2.80;;;22.00;99.90;;;;;;4999880;28;20042;-78
2023/08/26 11:23:54;;;;;;;6.25;2.40;;;22.00;99.90;;;;;;5005658;28;20062;-78
2023/08/26 11:26:21;;;;;;;5.00;2.33;;;22.00;99.90;;;;;;5011001;28;20052;-78
2023/08/26 11:28:48;;;;;;;4.78;2.30;;;22.00;99.90;;;;;;5002885;28;20226;-79
2023/08/26 11:31:16;;;;;;;7.63;2.50;;;22.00;99.90;;;;;;5006677;28;20053;-81
2023/08/26 11:33:44;;;;;;;3.25;2.17;;;21.90;99.90;;;;;;5000425;28;20133;-78
2023/08/26 11:36:10;;;;;;;5.55;2.28;;;21.90;99.90;;;;;;4998348;28;20066;-79
2023/08/26 11:38:37;;;;;;;7.18;2.20;;;21.80;99.90;;;;;;5006364;28;20108;-79
2023/08/26 11:41:09;;;;;;;6.38;2.67;;;21.70;99.90;;;;;;4993362;28;20422;-79
2023/08/26 11:43:36;;;;;;;4.80;1.90;;;21.60;99.90;;;;;;5001852;28;20524;-79
2023/08/26 11:46:06;;;;;;;8.75;2.55;;;21.60;99.90;;;;;;5005577;28;20054;-80
2023/08/26 11:48:37;;;;;;;4.30;1.95;;;21.50;99.90;;;;;;5011822;28;20493;-80
2023/08/26 11:51:04;;;;;;;5.72;2.03;;;21.60;99.90;;;;;;4999005;28;20086;-80
2023/08/26 11:53:31;;;;;;;4.53;1.73;;;21.50;99.90;;;;;;5008960;28;20057;-80
2023/08/26 11:55:58;;;;;;;5.10;2.05;;;21.50;99.90;;;;;;5012223;28;20053;-81
2023/08/26 11:58:28;;;;;;;3.67;1.83;;;21.40;99.90;;;;;;5004484;28;20441;-80
2023/08/26 12:00:56;;;;;;;2.40;1.77;;;21.40;99.90;;;;;;5008585;28;20477;-80
2023/08/26 12:03:23;;;;;;;6.32;2.30;;;21.40;99.90;;;;;;5013124;28;20077;-80
2023/08/26 12:05:52;;;;;;;4.53;2.10;;;21.30;99.90;;;;;;5000546;28;20118;-81
2023/08/26 12:08:21;;;;;;;6.07;2.17;;;21.40;99.90;;;;;;5010029;28;20050;-81
2023/08/26 12:10:52;;;;;;;4.50;1.83;;;21.40;99.90;;;;;;5012513;28;20049;-80
2023/08/26 12:13:19;;;;;;;4.90;2.00;;;21.50;99.90;;;;;;5004187;28;20399;-81
2023/08/26 12:15:47;;;;;;;3.83;1.70;;;21.60;99.90;;;;;;5004758;28;20073;-80
2023/08/26 12:18:14;;;;;;;5.65;2.10;;;21.60;99.90;;;;;;5012562;28;20049;-80
2023/08/26 12:20:44;;;;;;;4.10;1.73;;;21.70;99.90;;;;;;4980476;28;20049;-81
2023/08/26 12:23:12;;;;;;;3.75;1.70;;;21.70;99.90;;;;;;5009856;28;20077;-82
2023/08/26 12:25:41;;;;;;;2.78;1.75;;;21.70;99.90;;;;;;5011054;28;20424;-79
2023/08/26 12:28:23;;;;;;;4.35;2.00;;;21.70;99.90;;;;;;5004701;28;20125;-79
2023/08/26 12:30:50;;;;;;;5.68;1.80;;;21.70;99.90;;;;;;5002444;28;20053;-80
2023/08/26 12:33:17;;;;;;;3.70;1.70;;;21.60;99.90;;;;;;5008584;28;20045;-80
2023/08/26 12:35:52;;;;;;;4.22;2.22;;;21.60;99.90;;;;;;5004918;28;20057;-81
2023/08/26 12:38:20;;;;;;;6.10;2.10;;;21.60;99.90;;;;;;4991278;28;20069;-81
2023/08/26 12:40:49;;;;;;;4.10;1.67;;;21.60;99.90;;;;;;5010692;28;20042;-79
2023/08/26 12:43:20;;;;;;;5.22;2.25;;;21.50;99.90;;;;;;5002545;28;20136;-79
2023/08/26 12:45:48;;;;;;;7.15;2.05;;;21.40;99.90;;;;;;5004376;28;20077;-80
2023/08/26 12:48:16;;;;;;;4.03;1.95;;;21.40;99.90;;;;;;5008591;28;20050;-81